createdAt,value
2023-05-17T00:03:01.193Z,101127.47
2023-05-17T00:06:03.294Z,101133.88
2023-05-17T00:09:05.663Z,101128.88
2023-05-17T00:12:07.391Z,101118.34
2023-05-17T00:15:13.568Z,101120.00
2023-05-17T00:18:15.571Z,101118.31
2023-05-17T00:21:17.533Z,101120.34
2023-05-17T00:24:19.199Z,101113.75
2023-05-17T00:27:20.986Z,101105.47
2023-05-17T00:30:23.109Z,101118.16
2023-05-17T00:33:24.824Z,101125.00
2023-05-17T00:36:26.767Z,101122.13
2023-05-17T00:39:28.337Z,101124.69
2023-05-17T00:42:30.163Z,101127.34
2023-05-17T00:45:32.167Z,101134.53
2023-05-17T00:48:34.105Z,101136.63
2023-05-17T00:51:36.416Z,101130.47
2023-05-17T00:54:39.424Z,101125.31
2023-05-17T00:57:41.771Z,101125.84
2023-05-17T01:00:43.996Z,101130.06
2023-05-17T01:03:47.603Z,101135.69
2023-05-17T01:06:50.290Z,101137.63
2023-05-17T01:09:52.563Z,101137.63
2023-05-17T01:13:10.566Z,101136.13
2023-05-17T01:16:30.452Z,101148.50
2023-05-17T01:19:51.205Z,101151.16
2023-05-17T01:23:22.520Z,101150.50
2023-05-17T01:26:44.572Z,101142.03
2023-05-17T01:29:49.448Z,101147.09
2023-05-17T01:32:53.645Z,101150.84
2023-05-17T01:35:55.804Z,101151.50
2023-05-17T01:38:57.680Z,101152.59
2023-05-17T01:42:24.630Z,101153.59
2023-05-17T01:45:40.835Z,101150.84
2023-05-17T01:49:15.278Z,101156.00
2023-05-17T01:52:26.361Z,101160.50
2023-05-17T01:55:31.057Z,101164.66
2023-05-17T01:58:43.872Z,101162.66
2023-05-17T02:01:47.609Z,101158.50
2023-05-17T02:04:53.902Z,101162.66
2023-05-17T02:07:56.800Z,101166.16
2023-05-17T02:11:01.066Z,101160.16
2023-05-17T02:14:05.815Z,101168.03
2023-05-17T02:17:07.657Z,101168.28
2023-05-17T02:20:10.707Z,101170.63
2023-05-17T02:23:12.702Z,101165.72
2023-05-17T02:26:14.381Z,101172.63
2023-05-17T02:29:16.391Z,101166.09
2023-05-17T02:32:18.318Z,101160.94
2023-05-17T02:35:21.152Z,101169.75
2023-05-17T02:38:25.785Z,101169.13
2023-05-17T02:41:27.668Z,101172.25
2023-05-17T02:44:29.360Z,101173.44
2023-05-17T02:47:31.455Z,101180.66
2023-05-17T02:50:33.975Z,101185.56
2023-05-17T02:53:35.679Z,101191.47
2023-05-17T02:56:37.798Z,101193.75
2023-05-17T02:59:39.753Z,101190.50
2023-05-17T03:02:41.841Z,101195.75
2023-05-17T03:05:44.183Z,101193.44
2023-05-17T03:08:46.146Z,101196.16
2023-05-17T03:11:48.113Z,101208.84
2023-05-17T03:14:56.409Z,101212.94
2023-05-17T03:17:59.669Z,101214.25
2023-05-17T03:21:01.761Z,101203.59
2023-05-17T03:24:04.159Z,101215.81
2023-05-17T03:27:06.621Z,101214.41
2023-05-17T03:30:10.819Z,101229.03
2023-05-17T03:33:12.816Z,101231.28
2023-05-17T03:36:15.683Z,101229.47
2023-05-17T03:39:17.739Z,101228.63
2023-05-17T03:42:20.504Z,101240.03
2023-05-17T03:45:23.407Z,101245.00
2023-05-17T03:48:25.474Z,101246.81
2023-05-17T03:51:28.406Z,101252.91
2023-05-17T03:54:30.341Z,101251.31
2023-05-17T03:57:32.279Z,101257.38
2023-05-17T04:00:34.276Z,101262.50
2023-05-17T04:03:42.139Z,101264.09
2023-05-17T04:06:44.432Z,101261.28
2023-05-17T04:09:49.086Z,101271.91
2023-05-17T04:12:51.152Z,101281.28
2023-05-17T04:15:52.856Z,101283.03
2023-05-17T04:18:54.825Z,101287.28
2023-05-17T04:21:56.769Z,101284.78
2023-05-17T04:25:00.907Z,101294.84
2023-05-17T04:28:04.147Z,101290.53
2023-05-17T04:31:09.813Z,101298.84
2023-05-17T04:34:14.313Z,101302.41
2023-05-17T04:37:17.330Z,101306.63
2023-05-17T04:40:22.489Z,101316.03
2023-05-17T04:43:25.938Z,101316.38
2023-05-17T04:46:27.945Z,101327.00
2023-05-17T04:49:30.303Z,101322.44
2023-05-17T04:52:33.061Z,101328.03
2023-05-17T04:55:35.113Z,101326.28
2023-05-17T04:58:39.169Z,101331.44
2023-05-17T05:01:41.840Z,101344.66
2023-05-17T05:04:44.216Z,101347.47
2023-05-17T05:07:50.869Z,101345.00
2023-05-17T05:10:53.209Z,101356.19
2023-05-17T05:13:58.474Z,101360.03
2023-05-17T05:17:01.225Z,101363.03
2023-05-17T05:20:04.278Z,101365.59
2023-05-17T05:23:06.617Z,101370.19
2023-05-17T05:26:09.812Z,101367.03
2023-05-17T05:29:11.886Z,101379.50
2023-05-17T05:32:15.760Z,101385.56
2023-05-17T05:35:23.273Z,101391.63
2023-05-17T05:38:25.250Z,101390.72
2023-05-17T05:41:28.151Z,101397.84
2023-05-17T05:44:31.622Z,101398.94
2023-05-17T05:47:33.857Z,101409.31
2023-05-17T05:50:36.154Z,101406.09
2023-05-17T05:53:43.864Z,101425.38
2023-05-17T05:56:46.176Z,101413.41
2023-05-17T05:59:50.699Z,101419.41
2023-05-17T06:02:54.240Z,101424.72
2023-05-17T06:05:56.348Z,101421.06
2023-05-17T06:08:59.778Z,101420.06
2023-05-17T06:12:05.412Z,101425.19
2023-05-17T06:15:07.913Z,101427.63
2023-05-17T06:18:09.903Z,101426.41
2023-05-17T06:21:15.556Z,101433.16
2023-05-17T06:24:17.865Z,101431.09
2023-05-17T06:27:19.788Z,101431.19
2023-05-17T06:30:21.821Z,101462.84
2023-05-17T06:33:24.715Z,101449.84
2023-05-17T06:36:26.815Z,101469.91
2023-05-17T06:39:28.665Z,101444.25
2023-05-17T06:42:31.109Z,101481.91
2023-05-17T06:45:33.096Z,101457.56
2023-05-17T06:48:35.005Z,101456.28
2023-05-17T06:51:37.302Z,101463.81
2023-05-17T06:54:39.449Z,101458.56
2023-05-17T06:57:41.711Z,101461.50
2023-05-17T07:00:43.555Z,101465.75
2023-05-17T07:03:46.908Z,101462.00
2023-05-17T07:06:49.237Z,101478.16
2023-05-17T07:09:51.901Z,101490.16
2023-05-17T07:12:54.397Z,101479.72
2023-05-17T07:15:56.960Z,101492.00
2023-05-17T07:18:59.379Z,101498.06
2023-05-17T07:22:02.123Z,101501.41
2023-05-17T07:25:05.152Z,101502.78
2023-05-17T07:28:07.235Z,101511.88
2023-05-17T07:31:11.463Z,101502.59
2023-05-17T07:34:14.421Z,101525.00
2023-05-17T07:37:16.806Z,101516.28
2023-05-17T07:40:18.908Z,101522.03
2023-05-17T07:43:22.639Z,101548.16
2023-05-17T07:46:25.248Z,101543.72
2023-05-17T07:49:27.603Z,101533.09
2023-05-17T07:52:29.961Z,101534.56
2023-05-17T07:55:32.002Z,101538.50
2023-05-17T07:58:34.377Z,101539.69
2023-05-17T08:01:36.624Z,101563.31
2023-05-17T08:04:38.645Z,101572.66
2023-05-17T08:07:41.097Z,101563.63
2023-05-17T08:10:43.623Z,101577.78
2023-05-17T08:13:48.283Z,101574.16
2023-05-17T08:16:51.986Z,101558.16
2023-05-17T08:19:54.196Z,101577.03
2023-05-17T08:22:56.344Z,101578.28
2023-05-17T08:25:58.236Z,101589.50
2023-05-17T08:29:03.310Z,101589.00
2023-05-17T08:32:06.086Z,101576.75
2023-05-17T08:35:07.883Z,101581.25
2023-05-17T08:38:09.708Z,101576.75
2023-05-17T08:41:11.469Z,101592.66
2023-05-17T08:44:17.012Z,101585.59
2023-05-17T08:47:29.617Z,101596.69
2023-05-17T08:50:35.552Z,101585.00
2023-05-17T08:53:37.704Z,101592.66
2023-05-17T08:56:43.313Z,101586.13
2023-05-17T08:59:46.917Z,101587.56
2023-05-17T09:02:52.300Z,101586.19
2023-05-17T09:06:00.367Z,101590.09
2023-05-17T09:09:07.581Z,101595.50
2023-05-17T09:12:09.723Z,101591.84
2023-05-17T09:15:16.772Z,101591.28
2023-05-17T09:18:19.620Z,101587.47
2023-05-17T09:21:25.481Z,101590.78
2023-05-17T09:24:31.005Z,101590.56
2023-05-17T09:27:36.356Z,101584.72
2023-05-17T09:30:40.747Z,101587.97
2023-05-17T09:33:44.231Z,101586.03
2023-05-17T09:36:46.355Z,101579.41
2023-05-17T09:39:52.076Z,101578.97
2023-05-17T09:42:55.414Z,101587.47
2023-05-17T09:45:59.978Z,101591.38
2023-05-17T09:49:03.762Z,101583.81
2023-05-17T09:52:09.040Z,101584.13
2023-05-17T09:55:17.424Z,101584.41
2023-05-17T09:58:19.346Z,101587.06
2023-05-17T10:01:22.803Z,101579.28
2023-05-17T10:04:37.047Z,101580.03
2023-05-17T10:07:41.353Z,101579.06
2023-05-17T10:10:44.137Z,101585.81
2023-05-17T10:13:53.765Z,101593.97
2023-05-17T10:16:57.208Z,101592.56
2023-05-17T10:19:59.877Z,101594.56
2023-05-17T10:23:03.853Z,101602.75
2023-05-17T10:26:06.911Z,101613.41
2023-05-17T10:29:10.115Z,101599.78
2023-05-17T10:32:15.274Z,101603.66
2023-05-17T10:35:18.906Z,101611.09
2023-05-17T10:38:31.937Z,101608.44
2023-05-17T10:41:45.925Z,101608.09
2023-05-17T10:44:48.544Z,101608.25
2023-05-17T10:47:58.255Z,101603.41
2023-05-17T10:51:07.872Z,101608.88
2023-05-17T10:54:12.202Z,101616.75
2023-05-17T10:57:49.993Z,101591.97
2023-05-17T11:00:55.962Z,101587.56
2023-05-17T11:03:58.151Z,101594.34
2023-05-17T11:07:29.550Z,101575.03
2023-05-17T11:10:31.609Z,101606.78
2023-05-17T11:13:33.687Z,101595.06
2023-05-17T11:16:40.383Z,101599.19
2023-05-17T11:20:07.413Z,101581.38
2023-05-17T11:23:17.277Z,101580.00
2023-05-17T11:26:38.261Z,101584.75
2023-05-17T11:29:47.407Z,101585.69
2023-05-17T11:32:51.652Z,101596.34
2023-05-17T11:35:56.043Z,101599.41
2023-05-17T11:39:14.577Z,101602.16
2023-05-17T11:42:26.036Z,101607.91
2023-05-17T11:45:28.804Z,101607.94
2023-05-17T11:48:32.236Z,101599.34
2023-05-17T11:51:35.854Z,101605.38
2023-05-17T11:54:41.531Z,101602.31
2023-05-17T11:57:45.173Z,101617.78
2023-05-17T12:00:55.456Z,101607.38
2023-05-17T12:04:00.062Z,101619.03
2023-05-17T12:07:02.242Z,101628.06
2023-05-17T12:10:06.214Z,101608.28
2023-05-17T12:13:08.469Z,101613.13
2023-05-17T12:16:17.887Z,101612.69
2023-05-17T12:19:27.456Z,101625.28
2023-05-17T12:22:29.781Z,101634.53
2023-05-17T12:25:32.004Z,101641.63
2023-05-17T12:28:35.092Z,101640.16
2023-05-17T12:31:40.476Z,101646.78
2023-05-17T12:34:42.624Z,101643.94
2023-05-17T12:37:45.021Z,101643.44
2023-05-17T12:40:47.240Z,101648.81
2023-05-17T12:43:51.617Z,101639.59
2023-05-17T12:46:56.520Z,101646.03
2023-05-17T12:50:01.028Z,101640.47
2023-05-17T12:53:08.745Z,101647.03
2023-05-17T12:56:22.579Z,101648.47
2023-05-17T12:59:26.087Z,101641.16
2023-05-17T13:02:31.375Z,101643.78
2023-05-17T13:05:36.524Z,101643.53
2023-05-17T13:08:39.223Z,101647.69
2023-05-17T13:11:42.602Z,101664.31
2023-05-17T13:14:47.834Z,101644.59
2023-05-17T13:17:50.430Z,101649.28
2023-05-17T13:20:52.779Z,101648.06
2023-05-17T13:23:55.463Z,101646.28
2023-05-17T13:26:58.715Z,101640.91
2023-05-17T13:30:01.576Z,101642.78
2023-05-17T13:33:04.265Z,101642.28
2023-05-17T13:36:09.027Z,101643.75
2023-05-17T13:39:13.133Z,101633.63
2023-05-17T13:42:15.892Z,101638.97
2023-05-17T13:45:18.551Z,101636.66
2023-05-17T13:48:21.257Z,101639.91
2023-05-17T13:51:25.578Z,101638.84
2023-05-17T13:54:28.033Z,101638.47
2023-05-17T13:57:32.473Z,101630.09
2023-05-17T14:00:36.013Z,101631.50
2023-05-17T14:03:44.965Z,101628.78
2023-05-17T14:06:49.456Z,101612.78
2023-05-17T14:09:56.135Z,101624.03
2023-05-17T14:12:59.507Z,101629.81
2023-05-17T14:16:02.773Z,101629.13
2023-05-17T14:19:05.450Z,101630.63
2023-05-17T14:22:09.141Z,101623.63
2023-05-17T14:25:11.852Z,101628.88
2023-05-17T14:28:14.071Z,101629.28
2023-05-17T14:31:20.137Z,101638.06
2023-05-17T14:34:23.043Z,101631.31
2023-05-17T14:37:25.055Z,101634.63
2023-05-17T14:40:27.807Z,101625.25
2023-05-17T14:43:29.778Z,101634.63
2023-05-17T14:46:32.293Z,101629.53
2023-05-17T14:49:34.777Z,101626.09
2023-05-17T14:52:36.731Z,101635.63
2023-05-17T14:55:41.483Z,101628.69
2023-05-17T14:58:43.616Z,101628.81
2023-05-17T15:01:45.906Z,101625.56
2023-05-17T15:04:48.153Z,101633.94
2023-05-17T15:07:50.825Z,101640.44
2023-05-17T15:10:54.325Z,101640.44
2023-05-17T15:13:56.923Z,101637.59
2023-05-17T15:16:58.973Z,101637.00
2023-05-17T15:20:04.854Z,101647.69
2023-05-17T15:23:07.102Z,101644.47
2023-05-17T15:26:09.457Z,101654.91
2023-05-17T15:29:12.008Z,101645.59
2023-05-17T15:32:13.963Z,101664.84
2023-05-17T15:35:17.034Z,101667.78
2023-05-17T15:38:19.564Z,101655.47
2023-05-17T15:41:29.565Z,101645.63
2023-05-17T15:44:32.645Z,101658.75
2023-05-17T15:47:42.972Z,101653.78
2023-05-17T15:50:47.050Z,101651.16
2023-05-17T15:53:49.338Z,101647.84
2023-05-17T15:56:53.825Z,101650.72
2023-05-17T15:59:56.917Z,101657.31
2023-05-17T16:02:59.972Z,101665.44
2023-05-17T16:06:17.231Z,101652.56
2023-05-17T16:09:24.667Z,101658.50
2023-05-17T16:12:29.702Z,101653.03
2023-05-17T16:15:35.782Z,101654.91
2023-05-17T16:18:39.813Z,101659.53
2023-05-17T16:21:46.859Z,101663.28
2023-05-17T16:24:59.158Z,101668.00
2023-05-17T16:28:05.849Z,101660.09
2023-05-17T16:31:13.208Z,101660.69
2023-05-17T16:34:16.999Z,101656.56
2023-05-17T16:37:21.095Z,101662.91
2023-05-17T16:40:25.974Z,101663.81
2023-05-17T16:43:31.159Z,101670.81
2023-05-17T16:46:35.805Z,101682.09
2023-05-17T16:49:38.960Z,101678.84
2023-05-17T16:52:43.227Z,101686.66
2023-05-17T16:55:47.321Z,101692.91
2023-05-17T16:58:51.074Z,101685.53
2023-05-17T17:01:53.324Z,101697.28
2023-05-17T17:04:55.171Z,101705.91
2023-05-17T17:07:58.384Z,101701.59
2023-05-17T17:11:03.978Z,101701.84
2023-05-17T17:14:07.050Z,101710.56
2023-05-17T17:17:09.432Z,101712.16
2023-05-17T17:20:12.629Z,101704.59
2023-05-17T17:23:15.203Z,101699.28
2023-05-17T17:26:17.865Z,101703.69
2023-05-17T17:29:22.191Z,101707.09
2023-05-17T17:32:29.242Z,101707.66
2023-05-17T17:35:37.356Z,101713.31
2023-05-17T17:38:42.074Z,101709.34
2023-05-17T17:41:44.430Z,101712.47
2023-05-17T17:44:47.908Z,101716.41
2023-05-17T17:47:53.541Z,101718.19
2023-05-17T17:50:59.805Z,101723.09
2023-05-17T17:54:08.048Z,101716.97
2023-05-17T17:57:10.536Z,101719.72
2023-05-17T18:00:16.816Z,101720.72
2023-05-17T18:03:24.094Z,101729.53
2023-05-17T18:06:26.803Z,101725.34
2023-05-17T18:09:29.148Z,101722.00
2023-05-17T18:12:34.075Z,101721.97
2023-05-17T18:15:37.193Z,101720.16
2023-05-17T18:18:40.894Z,101723.03
2023-05-17T18:21:44.440Z,101726.63
2023-05-17T18:24:46.609Z,101720.22
2023-05-17T18:27:48.776Z,101727.03
2023-05-17T18:30:51.297Z,101728.22
2023-05-17T18:33:57.206Z,101730.72
2023-05-17T18:37:06.537Z,101731.47
2023-05-17T18:40:09.798Z,101730.44
2023-05-17T18:43:12.979Z,101732.06
2023-05-17T18:46:15.823Z,101736.84
2023-05-17T18:49:18.189Z,101731.03
2023-05-17T18:52:26.395Z,101733.06
2023-05-17T18:55:30.096Z,101738.94
2023-05-17T18:58:32.658Z,101736.16
2023-05-17T19:01:34.377Z,101742.41
2023-05-17T19:04:36.973Z,101747.25
2023-05-17T19:07:39.065Z,101753.34
2023-05-17T19:10:41.177Z,101744.00
2023-05-17T19:13:46.315Z,101755.09
2023-05-17T19:16:51.708Z,101740.72
2023-05-17T19:19:54.088Z,101746.25
2023-05-17T19:22:56.980Z,101747.66
2023-05-17T19:25:59.545Z,101752.22
2023-05-17T19:29:03.766Z,101750.91
2023-05-17T19:32:09.211Z,101764.13
2023-05-17T19:35:11.689Z,101754.34
2023-05-17T19:38:15.024Z,101762.53
2023-05-17T19:41:17.297Z,101766.63
2023-05-17T19:44:19.356Z,101762.22
2023-05-17T19:47:21.390Z,101764.31
2023-05-17T19:50:24.490Z,101762.28
2023-05-17T19:53:26.694Z,101763.72
2023-05-17T19:56:29.717Z,101772.47
2023-05-17T19:59:32.015Z,101770.03
2023-05-17T20:02:34.448Z,101769.34
2023-05-17T20:05:36.989Z,101771.03
2023-05-17T20:08:42.612Z,101762.94
2023-05-17T20:11:44.548Z,101765.84
2023-05-17T20:14:46.603Z,101774.09
2023-05-17T20:17:48.896Z,101775.97
2023-05-17T20:20:54.284Z,101773.41
2023-05-17T20:24:01.480Z,101770.22
2023-05-17T20:27:03.716Z,101769.63
2023-05-17T20:30:07.786Z,101767.13
2023-05-17T20:33:11.714Z,101778.75
2023-05-17T20:36:16.666Z,101771.19
2023-05-17T20:39:22.008Z,101779.31
2023-05-17T20:42:25.214Z,101788.19
2023-05-17T20:45:29.780Z,101791.69
2023-05-17T20:48:35.644Z,101783.56
2023-05-17T20:51:37.971Z,101791.38
2023-05-17T20:54:40.311Z,101794.22
2023-05-17T20:57:42.392Z,101797.97
2023-05-17T21:00:44.620Z,101795.53
2023-05-17T21:03:46.851Z,101796.81
2023-05-17T21:06:51.087Z,101802.94
2023-05-17T21:09:56.617Z,101796.34
2023-05-17T21:12:58.857Z,101801.72
2023-05-17T21:16:00.960Z,101802.72
2023-05-17T21:19:03.269Z,101809.88
2023-05-17T21:22:06.129Z,101807.13
2023-05-17T21:25:08.975Z,101810.16
2023-05-17T21:28:11.259Z,101808.03
2023-05-17T21:31:13.808Z,101810.34
2023-05-17T21:34:16.093Z,101809.16
2023-05-17T21:37:18.582Z,101807.00
2023-05-17T21:40:20.931Z,101805.66
2023-05-17T21:43:23.418Z,101815.44
2023-05-17T21:46:25.527Z,101804.69
2023-05-17T21:49:28.681Z,101811.69
2023-05-17T21:52:30.851Z,101815.44
2023-05-17T21:55:41.322Z,101822.38
2023-05-17T21:58:48.312Z,101814.66
2023-05-17T22:01:51.010Z,101827.84
2023-05-17T22:04:53.869Z,101824.25
2023-05-17T22:07:55.952Z,101831.34
2023-05-17T22:10:57.942Z,101827.16
2023-05-17T22:14:00.173Z,101834.94
2023-05-17T22:17:08.018Z,101832.63
2023-05-17T22:20:11.826Z,101830.25
2023-05-17T22:23:15.480Z,101836.50
2023-05-17T22:26:17.551Z,101836.69
2023-05-17T22:29:19.649Z,101839.19
2023-05-17T22:32:21.696Z,101833.47
2023-05-17T22:35:24.600Z,101839.75
2023-05-17T22:38:26.820Z,101843.41
2023-05-17T22:41:28.850Z,101833.03
2023-05-17T22:44:33.824Z,101834.00
2023-05-17T22:47:35.826Z,101834.09
2023-05-17T22:50:38.990Z,101842.13
2023-05-17T22:53:40.682Z,101834.44
2023-05-17T22:56:43.058Z,101836.97
2023-05-17T22:59:45.259Z,101839.72
2023-05-17T23:02:47.409Z,101837.19
2023-05-17T23:05:49.509Z,101836.41
2023-05-17T23:08:53.192Z,101831.72
2023-05-17T23:11:55.593Z,101829.84
2023-05-17T23:14:58.134Z,101834.16
2023-05-17T23:18:01.074Z,101829.09
2023-05-17T23:21:03.240Z,101829.25
2023-05-17T23:24:06.736Z,101829.31
2023-05-17T23:27:14.582Z,101833.63
2023-05-17T23:30:16.930Z,101831.34
2023-05-17T23:33:19.087Z,101834.06
2023-05-17T23:36:21.713Z,101830.84
2023-05-17T23:39:23.925Z,101829.28
2023-05-17T23:42:34.991Z,101831.06
2023-05-17T23:45:37.012Z,101829.44
2023-05-17T23:48:38.764Z,101831.06
2023-05-17T23:51:40.926Z,101829.63
2023-05-17T23:54:43.035Z,101829.84
2023-05-17T23:57:44.839Z,101821.50
